Time;durP1;ratioP1;P1;durP2;ratioP2;P2;SDS_P1;SDS_P2;PMS_P1;PMS_P2;Temp;Humidity;BMP_temperature;BMP_pressure;BME280_temperature;BME280_humidity;BME280_pressure;Samples;Min_cycle;Max_cycle;Signal;HPM_P1;HPM_P2
2023/07/15 00:00:41;;;;;;;7.50;3.80;;;22.30;99.90;;;;;;5043144;28;20227;-74
2023/07/15 00:03:11;;;;;;;4.82;3.10;;;22.30;99.90;;;;;;5043950;28;20226;-74
2023/07/15 00:05:37;;;;;;;6.63;3.35;;;22.40;99.90;;;;;;5047562;28;20235;-74
2023/07/15 00:08:04;;;;;;;5.70;3.38;;;22.40;99.90;;;;;;5041770;28;20176;-74
2023/07/15 00:10:30;;;;;;;7.00;3.50;;;22.40;99.90;;;;;;5033964;28;20204;-73
2023/07/15 00:12:56;;;;;;;4.13;3.70;;;22.40;99.90;;;;;;5043354;28;20249;-75
2023/07/15 00:15:22;;;;;;;5.47;3.50;;;22.30;99.90;;;;;;5039539;28;20997;-74
2023/07/15 00:17:48;;;;;;;4.82;3.58;;;22.30;99.90;;;;;;5039328;28;20832;-75
2023/07/15 00:20:14;;;;;;;7.40;3.65;;;22.30;99.90;;;;;;5042197;28;20608;-74
2023/07/15 00:22:44;;;;;;;4.88;3.50;;;22.30;99.90;;;;;;5045089;28;20646;-75
2023/07/15 00:25:15;;;;;;;5.88;3.47;;;22.30;99.90;;;;;;5044192;28;20715;-76
2023/07/15 00:27:44;;;;;;;6.25;3.80;;;22.30;99.90;;;;;;5044107;28;20262;-74
2023/07/15 00:30:13;;;;;;;5.32;3.63;;;22.40;99.90;;;;;;5046856;28;20214;-73
2023/07/15 00:32:40;;;;;;;4.35;3.13;;;22.30;99.90;;;;;;5042191;28;20650;-74
2023/07/15 00:35:29;;;;;;;3.88;3.35;;;22.40;99.90;;;;;;5046669;28;20179;-74
2023/07/15 00:37:59;;;;;;;6.20;3.10;;;22.20;99.90;;;;;;5047843;28;20865;-73
2023/07/15 00:40:26;;;;;;;6.88;3.67;;;22.30;99.90;;;;;;5047199;28;20674;-72
2023/07/15 00:43:30;;;;;;;8.50;3.35;;;22.30;99.90;;;;;;5047317;28;20207;-74
2023/07/15 00:46:18;;;;;;;4.68;3.70;;;22.20;99.90;;;;;;5038531;28;20298;-74
2023/07/15 00:49:01;;;;;;;4.72;3.08;;;22.20;99.90;;;;;;5035973;28;20281;-73
2023/07/15 00:51:29;;;;;;;5.10;4.00;;;22.10;99.90;;;;;;5039221;28;20616;-74
2023/07/15 00:53:54;;;;;;;3.25;2.80;;;22.00;99.90;;;;;;5041507;28;20208;-73
2023/07/15 00:56:25;;;;;;;5.68;3.83;;;22.10;99.90;;;;;;5041322;28;20897;-74
2023/07/15 00:58:52;;;;;;;8.07;3.85;;;22.00;99.90;;;;;;5042911;28;20198;-74
2023/07/15 01:01:18;;;;;;;6.20;3.35;;;22.00;99.90;;;;;;5042940;28;20211;-74
2023/07/15 01:03:45;;;;;;;4.70;3.13;;;22.00;99.90;;;;;;5044311;28;20222;-74
2023/07/15 01:06:14;;;;;;;7.72;3.45;;;22.00;99.90;;;;;;5044532;28;20196;-73
2023/07/15 01:08:40;;;;;;;6.53;3.35;;;21.90;99.90;;;;;;5060279;28;20217;-72
2023/07/15 01:11:06;;;;;;;4.88;3.40;;;21.90;99.90;;;;;;5046576;28;20192;-73
2023/07/15 01:13:32;;;;;;;6.22;3.97;;;21.90;99.90;;;;;;5046599;28;20176;-73
2023/07/15 01:15:58;;;;;;;3.65;2.80;;;21.90;99.90;;;;;;5046713;28;20203;-73
2023/07/15 01:18:23;;;;;;;5.38;3.65;;;21.90;99.90;;;;;;5047560;28;20247;-73
2023/07/15 01:20:50;;;;;;;5.88;3.65;;;21.90;99.90;;;;;;5043715;28;20566;-74
2023/07/15 01:23:16;;;;;;;6.65;3.63;;;21.80;99.90;;;;;;5047062;28;20195;-72
2023/07/15 01:25:42;;;;;;;7.13;3.60;;;21.80;99.90;;;;;;5049056;28;20172;-73
2023/07/15 01:28:08;;;;;;;4.88;3.53;;;21.70;99.90;;;;;;5048392;28;20203;-74
2023/07/15 01:30:33;;;;;;;5.20;3.00;;;21.60;99.90;;;;;;5044422;28;20208;-73
2023/07/15 01:32:59;;;;;;;6.78;3.65;;;21.70;99.90;;;;;;5045698;28;20308;-74
2023/07/15 01:35:24;;;;;;;4.55;3.17;;;21.60;99.90;;;;;;5045515;28;20600;-74
2023/07/15 01:37:50;;;;;;;5.22;3.33;;;21.60;99.90;;;;;;5046855;28;20207;-74
2023/07/15 01:40:16;;;;;;;5.78;3.13;;;21.60;99.90;;;;;;5043680;28;20227;-74
2023/07/15 01:42:42;;;;;;;5.50;3.60;;;21.60;99.90;;;;;;5046401;28;20208;-75
2023/07/15 01:45:09;;;;;;;4.75;3.20;;;21.50;99.90;;;;;;5045901;28;20200;-75
2023/07/15 01:47:36;;;;;;;5.30;3.55;;;21.50;99.90;;;;;;5047986;28;20219;-74
2023/07/15 01:50:02;;;;;;;6.22;3.80;;;21.40;99.90;;;;;;5050032;28;20167;-73
2023/07/15 01:52:27;;;;;;;7.63;3.88;;;21.30;99.90;;;;;;5050882;28;20243;-73
2023/07/15 01:54:53;;;;;;;5.35;3.50;;;21.30;99.90;;;;;;5051066;28;20203;-74
2023/07/15 01:57:20;;;;;;;5.18;3.50;;;21.30;99.90;;;;;;5045631;28;20223;-71
2023/07/15 01:59:46;;;;;;;7.78;3.75;;;21.30;99.90;;;;;;5046561;28;20195;-74
2023/07/15 02:02:12;;;;;;;6.53;3.67;;;21.30;99.90;;;;;;5038867;28;20214;-74
2023/07/15 02:04:37;;;;;;;4.70;3.47;;;21.20;99.90;;;;;;5044164;28;20241;-73
2023/07/15 02:07:03;;;;;;;6.43;3.60;;;21.20;99.90;;;;;;5041464;28;20255;-75
2023/07/15 02:09:29;;;;;;;3.67;3.17;;;21.30;99.90;;;;;;5041432;28;20219;-73
2023/07/15 02:11:55;;;;;;;5.38;3.83;;;21.20;99.90;;;;;;5047226;28;20216;-73
2023/07/15 02:14:21;;;;;;;5.45;3.78;;;21.20;99.90;;;;;;5048396;28;20302;-73
2023/07/15 02:16:46;;;;;;;4.63;3.78;;;21.20;99.90;;;;;;5044887;28;20204;-74
2023/07/15 02:19:12;;;;;;;5.20;3.53;;;21.10;99.90;;;;;;5050608;28;20771;-74
2023/07/15 02:21:38;;;;;;;7.57;3.67;;;21.20;99.90;;;;;;5046497;28;20751;-73
2023/07/15 02:24:04;;;;;;;7.07;3.55;;;21.10;99.90;;;;;;5048395;28;20341;-73
2023/07/15 02:26:29;;;;;;;6.47;3.88;;;21.10;99.90;;;;;;5048021;28;20208;-74
2023/07/15 02:28:55;;;;;;;6.45;3.55;;;21.10;99.90;;;;;;5049220;28;20176;-74
2023/07/15 02:31:21;;;;;;;5.20;3.60;;;21.00;99.90;;;;;;5060215;28;20212;-74
2023/07/15 02:33:46;;;;;;;5.18;3.72;;;21.00;99.90;;;;;;5042762;28;20694;-73
2023/07/15 02:36:13;;;;;;;6.18;3.85;;;21.00;99.90;;;;;;5042558;28;20685;-74
2023/07/15 02:38:40;;;;;;;6.97;3.78;;;21.00;99.90;;;;;;5040329;28;20572;-73
2023/07/15 02:41:06;;;;;;;5.82;3.90;;;20.90;99.90;;;;;;5042686;28;20199;-73
2023/07/15 02:43:31;;;;;;;5.60;4.00;;;20.90;99.90;;;;;;5043188;28;20563;-72
2023/07/15 02:45:57;;;;;;;6.97;3.58;;;20.90;99.90;;;;;;5045952;28;20575;-74
2023/07/15 02:48:24;;;;;;;4.38;3.75;;;20.90;99.90;;;;;;5047561;28;20286;-72
2023/07/15 02:50:53;;;;;;;7.75;3.78;;;20.90;99.90;;;;;;5041575;28;20298;-74
2023/07/15 02:53:19;;;;;;;6.07;3.70;;;20.80;99.90;;;;;;5042433;28;20183;-73
2023/07/15 02:55:45;;;;;;;4.65;3.63;;;20.90;99.90;;;;;;5048650;28;20188;-73
2023/07/15 02:58:13;;;;;;;6.20;3.35;;;20.80;99.90;;;;;;5049549;28;20282;-72
2023/07/15 03:00:39;;;;;;;4.70;3.88;;;20.80;99.90;;;;;;5048189;28;20292;-76
2023/07/15 03:03:04;;;;;;;5.43;3.83;;;20.80;99.90;;;;;;5064603;28;20277;-74
2023/07/15 03:05:30;;;;;;;4.05;3.60;;;20.80;99.90;;;;;;5048251;28;20242;-74
2023/07/15 03:07:56;;;;;;;6.82;4.35;;;20.70;99.90;;;;;;5065259;28;20861;-74
2023/07/15 03:10:22;;;;;;;6.05;4.00;;;20.80;99.90;;;;;;5045454;28;20265;-73
2023/07/15 03:12:48;;;;;;;6.03;3.53;;;20.80;99.90;;;;;;5041271;28;20208;-73
2023/07/15 03:15:14;;;;;;;4.78;3.65;;;20.80;99.90;;;;;;5042307;28;20253;-73
2023/07/15 03:17:40;;;;;;;6.93;4.07;;;20.80;99.90;;;;;;5043627;28;20216;-73
2023/07/15 03:20:40;;;;;;;6.30;4.03;;;20.80;99.90;;;;;;5046046;28;20183;-73
2023/07/15 03:22:59;;;;;;;3.85;3.45;;;20.80;99.90;;;;;;5046065;28;20207;-74
2023/07/15 03:25:25;;;;;;;7.00;4.07;;;20.80;99.90;;;;;;5047118;28;21004;-71
2023/07/15 03:27:50;;;;;;;5.95;4.13;;;20.70;99.90;;;;;;5044720;28;20203;-74
2023/07/15 03:30:17;;;;;;;5.38;3.88;;;20.80;99.90;;;;;;5045561;28;20345;-74
2023/07/15 03:32:44;;;;;;;7.15;4.07;;;20.70;99.90;;;;;;5045322;28;20249;-75
2023/07/15 03:35:12;;;;;;;7.00;4.03;;;20.80;99.90;;;;;;5046607;28;20168;-73
2023/07/15 03:37:39;;;;;;;5.82;3.78;;;20.80;99.90;;;;;;5048270;28;20204;-73
2023/07/15 03:40:08;;;;;;;5.75;4.00;;;21.00;99.90;;;;;;5047358;28;20196;-74
2023/07/15 03:42:34;;;;;;;6.40;3.88;;;21.50;99.90;;;;;;5048216;28;20673;-74
2023/07/15 03:44:59;;;;;;;6.38;4.63;;;21.80;99.90;;;;;;5048773;28;20216;-74
2023/07/15 03:47:25;;;;;;;5.25;4.20;;;22.40;99.90;;;;;;5049193;28;20583;-74
2023/07/15 03:49:50;;;;;;;6.78;3.95;;;22.80;99.90;;;;;;5049095;28;20180;-74
2023/07/15 03:52:16;;;;;;;7.35;4.82;;;23.10;99.90;;;;;;5048368;28;20203;-74
2023/07/15 03:54:43;;;;;;;4.22;3.40;;;23.60;99.90;;;;;;5045965;28;20207;-74
2023/07/15 03:57:09;;;;;;;5.32;3.50;;;23.10;99.90;;;;;;5044498;28;20323;-74
2023/07/15 03:59:34;;;;;;;8.35;3.67;;;23.00;99.90;;;;;;5044145;28;20260;-72
2023/07/15 04:02:00;;;;;;;4.53;3.60;;;22.80;99.90;;;;;;5050971;28;20191;-74
2023/07/15 04:04:26;;;;;;;4.65;4.18;;;22.90;99.90;;;;;;5047168;28;20293;-74
2023/07/15 04:06:52;;;;;;;6.70;4.25;;;23.40;99.90;;;;;;5048626;28;20203;-73
2023/07/15 04:09:17;;;;;;;4.65;3.70;;;24.40;99.90;;;;;;5046767;28;20215;-76
2023/07/15 04:11:44;;;;;;;7.68;4.22;;;25.20;99.90;;;;;;5045519;28;20211;-74
2023/07/15 04:14:12;;;;;;;6.38;3.90;;;25.90;99.90;;;;;;5048414;28;20267;-74
2023/07/15 04:16:38;;;;;;;4.65;3.80;;;26.50;99.90;;;;;;5046463;28;20176;-73
2023/07/15 04:19:03;;;;;;;7.60;3.45;;;27.00;99.90;;;;;;5047597;28;20262;-75
2023/07/15 04:21:29;;;;;;;7.55;3.50;;;27.60;99.90;;;;;;5047926;28;20291;-74
2023/07/15 04:23:54;;;;;;;5.88;3.90;;;27.40;99.90;;;;;;5046898;28;20649;-73
2023/07/15 04:26:22;;;;;;;4.68;4.25;;;27.80;99.90;;;;;;5048238;28;20179;-75
2023/07/15 04:28:49;;;;;;;4.70;3.53;;;28.30;99.90;;;;;;5048017;28;20533;-75
2023/07/15 04:31:15;;;;;;;4.93;4.43;;;28.50;99.90;;;;;;5045193;28;20211;-74
2023/07/15 04:33:48;;;;;;;4.57;3.30;;;28.20;99.90;;;;;;5046814;28;20249;-74
2023/07/15 04:36:14;;;;;;;5.15;3.67;;;28.90;99.90;;;;;;5047519;28;20654;-75
2023/07/15 04:38:40;;;;;;;5.72;3.80;;;28.80;99.90;;;;;;5047352;28;20310;-74
2023/07/15 04:41:06;;;;;;;5.10;3.22;;;29.00;99.90;;;;;;5047755;28;20283;-75
2023/07/15 04:43:32;;;;;;;6.22;3.72;;;29.30;99.90;;;;;;5060256;28;20167;-74
2023/07/15 04:45:59;;;;;;;5.88;3.80;;;29.30;99.90;;;;;;5050918;28;20214;-74
2023/07/15 04:48:25;;;;;;;6.85;3.30;;;29.10;99.90;;;;;;5045326;28;20261;-75
2023/07/15 04:50:51;;;;;;;4.28;3.88;;;28.80;99.90;;;;;;5047824;28;20211;-75
2023/07/15 04:53:16;;;;;;;5.65;5.10;;;29.10;99.90;;;;;;5043175;28;20726;-74
2023/07/15 04:55:43;;;;;;;7.20;3.70;;;29.20;99.90;;;;;;5047139;28;20259;-75
2023/07/15 04:58:09;;;;;;;3.60;3.25;;;28.60;99.90;;;;;;5062160;28;20207;-75
2023/07/15 05:00:36;;;;;;;9.77;4.10;;;28.10;99.90;;;;;;5047013;28;20204;-73
2023/07/15 05:03:02;;;;;;;5.53;3.35;;;28.20;99.90;;;;;;5050804;28;20286;-75
2023/07/15 05:05:28;;;;;;;5.47;3.50;;;28.80;99.90;;;;;;5041180;28;20291;-74
2023/07/15 05:07:59;;;;;;;5.78;3.90;;;28.80;99.90;;;;;;5039535;28;20186;-74
2023/07/15 05:10:25;;;;;;;6.78;3.60;;;29.00;99.90;;;;;;5057039;28;20207;-75
2023/07/15 05:12:50;;;;;;;3.92;3.30;;;29.80;99.90;;;;;;5054675;28;20208;-75
2023/07/15 05:15:16;;;;;;;5.15;3.50;;;30.30;99.90;;;;;;5042587;28;20224;-74
2023/07/15 05:17:44;;;;;;;3.70;3.40;;;29.70;99.90;;;;;;5042462;28;20226;-74
2023/07/15 05:20:10;;;;;;;6.93;3.53;;;29.90;99.90;;;;;;5042848;28;20264;-74
2023/07/15 05:22:36;;;;;;;3.55;3.22;;;30.20;99.90;;;;;;5042542;28;20199;-72
2023/07/15 05:25:01;;;;;;;4.82;3.45;;;30.60;99.90;;;;;;5045396;28;20269;-75
2023/07/15 05:27:27;;;;;;;4.05;3.67;;;31.30;99.90;;;;;;5060638;28;20252;-75
2023/07/15 05:29:52;;;;;;;6.20;4.03;;;30.60;99.50;;;;;;5044786;28;20292;-75
2023/07/15 05:32:18;;;;;;;6.25;4.35;;;30.70;99.90;;;;;;5046637;28;20192;-75
2023/07/15 05:34:43;;;;;;;9.32;4.13;;;31.10;98.70;;;;;;5046187;28;20625;-75
2023/07/15 05:37:09;;;;;;;4.18;3.40;;;30.20;98.90;;;;;;5043703;28;20231;-75
2023/07/15 05:39:35;;;;;;;6.30;3.88;;;30.10;99.90;;;;;;5043448;28;20239;-75
2023/07/15 05:42:00;;;;;;;5.38;3.08;;;30.60;99.00;;;;;;5037617;28;20212;-74
2023/07/15 05:44:26;;;;;;;3.58;3.10;;;30.50;98.50;;;;;;5055781;28;20195;-74
2023/07/15 05:46:52;;;;;;;4.00;3.55;;;30.20;98.80;;;;;;5038909;28;20191;-75
2023/07/15 05:49:17;;;;;;;5.47;3.22;;;30.80;98.40;;;;;;5058629;28;20281;-75
2023/07/15 05:51:43;;;;;;;4.03;3.42;;;30.80;98.30;;;;;;5042071;28;20212;-75
2023/07/15 05:54:09;;;;;;;6.20;3.88;;;31.50;97.00;;;;;;5043363;28;20230;-75
2023/07/15 05:56:34;;;;;;;3.95;3.42;;;31.00;97.40;;;;;;5043482;28;20283;-76
2023/07/15 05:59:00;;;;;;;6.63;3.63;;;30.80;98.00;;;;;;5042636;28;20562;-76
2023/07/15 06:01:25;;;;;;;6.68;3.72;;;30.50;96.90;;;;;;5044516;28;20310;-76
2023/07/15 06:03:51;;;;;;;6.43;3.95;;;30.00;98.50;;;;;;5040810;28;20744;-74
2023/07/15 06:06:17;;;;;;;5.13;4.53;;;31.40;97.40;;;;;;5049397;28;20211;-76
2023/07/15 06:08:42;;;;;;;6.18;5.57;;;32.70;95.40;;;;;;5049184;28;20697;-75
2023/07/15 06:11:09;;;;;;;4.95;3.65;;;32.70;94.30;;;;;;5046604;28;20264;-75
2023/07/15 06:13:35;;;;;;;4.05;3.65;;;31.20;95.10;;;;;;5047431;28;20690;-74
2023/07/15 06:16:01;;;;;;;4.15;3.20;;;32.20;94.90;;;;;;5044577;28;20311;-76
2023/07/15 06:18:26;;;;;;;5.95;3.50;;;33.40;93.80;;;;;;5042470;28;20220;-75
2023/07/15 06:20:52;;;;;;;6.68;3.30;;;33.40;93.00;;;;;;5042732;28;20238;-75
2023/07/15 06:23:18;;;;;;;5.05;3.00;;;32.80;93.40;;;;;;5060910;28;20195;-74
2023/07/15 06:25:43;;;;;;;6.80;3.40;;;32.70;92.70;;;;;;5045776;28;20179;-75
2023/07/15 06:28:09;;;;;;;5.35;3.40;;;32.80;92.40;;;;;;5043103;28;20204;-74
2023/07/15 06:30:35;;;;;;;3.90;3.15;;;33.60;92.10;;;;;;5045211;28;20232;-76
2023/07/15 06:33:00;;;;;;;4.13;3.30;;;33.50;91.20;;;;;;5046211;28;20272;-76
2023/07/15 06:35:26;;;;;;;5.35;3.28;;;33.30;91.10;;;;;;5064061;28;20225;-76
2023/07/15 06:37:51;;;;;;;5.03;3.25;;;34.00;90.80;;;;;;5044097;28;20695;-75
2023/07/15 06:40:18;;;;;;;4.30;3.22;;;34.30;88.80;;;;;;5048735;28;20218;-76
2023/07/15 06:42:44;;;;;;;7.75;3.90;;;34.00;88.70;;;;;;5048629;28;20207;-75
2023/07/15 06:45:11;;;;;;;5.07;3.15;;;34.10;88.30;;;;;;5049152;28;20235;-74
2023/07/15 06:47:37;;;;;;;5.18;3.30;;;34.10;87.80;;;;;;5050108;28;20203;-75
2023/07/15 06:50:03;;;;;;;3.67;2.80;;;34.20;87.20;;;;;;5058417;28;20180;-76
2023/07/15 06:52:29;;;;;;;4.68;3.40;;;34.90;85.80;;;;;;5043124;28;20188;-74
2023/07/15 06:54:54;;;;;;;4.10;2.95;;;34.80;84.80;;;;;;5044754;28;20199;-75
2023/07/15 06:57:20;;;;;;;4.90;3.38;;;35.00;84.90;;;;;;5043022;28;20211;-74
2023/07/15 06:59:47;;;;;;;4.68;3.28;;;35.80;82.60;;;;;;5047083;28;20199;-73
2023/07/15 07:02:13;;;;;;;7.97;3.60;;;36.00;81.00;;;;;;5044982;28;20606;-74
2023/07/15 07:04:39;;;;;;;4.53;3.00;;;36.10;81.60;;;;;;5046497;28;20250;-73
2023/07/15 07:07:04;;;;;;;4.95;3.50;;;36.60;79.30;;;;;;5047333;28;20310;-73
2023/07/15 07:09:30;;;;;;;5.47;3.47;;;35.30;80.10;;;;;;5045892;28;20704;-74
2023/07/15 07:11:55;;;;;;;4.13;3.72;;;35.10;80.10;;;;;;5046861;28;20237;-72
2023/07/15 07:14:21;;;;;;;5.28;3.75;;;35.10;80.80;;;;;;5047804;28;20217;-72
2023/07/15 07:16:47;;;;;;;7.00;3.42;;;34.50;81.10;;;;;;5048811;28;20714;-74
2023/07/15 07:19:12;;;;;;;4.60;3.75;;;35.60;80.40;;;;;;5053030;28;20203;-73
2023/07/15 07:21:39;;;;;;;3.80;3.22;;;35.50;80.60;;;;;;5047463;28;20203;-73
2023/07/15 07:24:04;;;;;;;3.50;3.20;;;36.30;78.50;;;;;;5048877;28;20948;-74
2023/07/15 07:26:30;;;;;;;3.67;3.00;;;37.30;77.10;;;;;;5049604;28;20211;-72
2023/07/15 07:28:56;;;;;;;4.03;3.63;;;37.40;75.40;;;;;;5040903;28;20185;-73
2023/07/15 07:31:22;;;;;;;4.28;3.30;;;37.20;75.00;;;;;;5039424;28;20696;-74
2023/07/15 07:33:47;;;;;;;4.15;3.28;;;36.60;74.80;;;;;;5044460;28;20210;-74
2023/07/15 07:36:13;;;;;;;4.07;3.20;;;37.20;74.60;;;;;;5040022;28;20578;-74
2023/07/15 07:38:39;;;;;;;5.63;3.83;;;37.60;73.00;;;;;;5045285;28;20285;-75
2023/07/15 07:41:09;;;;;;;5.70;3.95;;;37.80;73.60;;;;;;5044405;28;20556;-73
2023/07/15 07:43:36;;;;;;;6.18;3.30;;;37.80;72.30;;;;;;5061155;28;20237;-75
2023/07/15 07:46:03;;;;;;;6.03;3.10;;;37.60;72.50;;;;;;5062330;28;20230;-74
2023/07/15 07:48:29;;;;;;;3.30;3.00;;;37.70;71.60;;;;;;5041297;28;20211;-74
2023/07/15 07:50:56;;;;;;;7.70;4.00;;;38.60;72.50;;;;;;5060582;28;20276;-74
2023/07/15 07:53:23;;;;;;;4.10;3.20;;;38.20;70.80;;;;;;5044402;28;20215;-74
2023/07/15 07:55:50;;;;;;;4.90;3.85;;;38.00;71.00;;;;;;5048926;28;20223;-75
2023/07/15 07:58:15;;;;;;;4.93;3.50;;;38.70;69.60;;;;;;5047279;28;20856;-76
2023/07/15 08:00:41;;;;;;;6.20;4.05;;;39.10;69.70;;;;;;5044273;28;20207;-74
2023/07/15 08:03:07;;;;;;;5.10;3.70;;;38.60;69.20;;;;;;5044798;28;20260;-75
2023/07/15 08:05:32;;;;;;;5.32;3.20;;;38.20;69.80;;;;;;5037523;28;20208;-75
2023/07/15 08:07:58;;;;;;;6.30;3.20;;;36.40;71.30;;;;;;5045682;28;20815;-74
2023/07/15 08:10:24;;;;;;;3.78;3.20;;;36.20;72.20;;;;;;5042938;28;20628;-73
2023/07/15 08:12:49;;;;;;;3.55;3.20;;;35.50;73.20;;;;;;5044400;28;20199;-74
2023/07/15 08:15:15;;;;;;;3.60;3.30;;;35.80;73.20;;;;;;5042991;28;20207;-75
2023/07/15 08:17:41;;;;;;;4.18;2.95;;;36.60;72.50;;;;;;5042051;28;20310;-74
2023/07/15 08:20:10;;;;;;;4.05;2.97;;;37.40;71.50;;;;;;5042137;28;20171;-75
2023/07/15 08:22:35;;;;;;;6.10;2.88;;;37.70;70.40;;;;;;5042464;28;20183;-75
2023/07/15 08:25:01;;;;;;;5.00;3.55;;;37.40;70.30;;;;;;5040173;28;20756;-75
2023/07/15 08:27:27;;;;;;;4.32;2.88;;;37.50;69.80;;;;;;5040894;28;20199;-73
2023/07/15 08:29:52;;;;;;;4.15;3.00;;;37.20;70.70;;;;;;5043305;28;20249;-75
2023/07/15 08:32:18;;;;;;;3.03;2.72;;;38.00;70.30;;;;;;5042487;28;20198;-75
2023/07/15 08:34:59;;;;;;;5.22;3.45;;;38.50;70.20;;;;;;5043443;28;20183;-75
2023/07/15 08:37:26;;;;;;;4.60;3.13;;;37.50;70.40;;;;;;5046644;28;20630;-74
2023/07/15 08:39:51;;;;;;;5.10;3.22;;;36.90;70.30;;;;;;5045060;28;20285;-75
2023/07/15 08:42:21;;;;;;;3.03;2.72;;;36.80;71.90;;;;;;5044451;28;20210;-74
2023/07/15 08:44:48;;;;;;;4.50;3.08;;;37.70;71.60;;;;;;5042633;28;20202;-74
2023/07/15 08:47:24;;;;;;;7.45;3.33;;;38.60;70.30;;;;;;5047093;28;20183;-73
2023/07/15 08:49:51;;;;;;;4.30;3.33;;;36.40;71.90;;;;;;5042532;28;20675;-75
2023/07/15 08:52:21;;;;;;;5.20;3.38;;;36.40;72.00;;;;;;5040281;28;20551;-75
2023/07/15 08:54:48;;;;;;;7.30;3.33;;;36.60;73.20;;;;;;5042955;28;20206;-75
2023/07/15 08:57:17;;;;;;;2.97;2.67;;;36.80;72.20;;;;;;5043457;28;20219;-75
2023/07/15 08:59:47;;;;;;;5.88;3.72;;;36.70;71.80;;;;;;5042311;28;20285;-74
2023/07/15 09:02:13;;;;;;;3.50;3.20;;;36.50;72.90;;;;;;5046403;28;20325;-74
2023/07/15 09:04:39;;;;;;;3.22;2.92;;;36.20;73.70;;;;;;5043665;28;20247;-74
2023/07/15 09:07:05;;;;;;;3.78;2.70;;;36.10;73.00;;;;;;5040941;28;20305;-74
2023/07/15 09:09:35;;;;;;;5.50;3.20;;;36.30;72.60;;;;;;5047492;28;20195;-75
2023/07/15 09:12:09;;;;;;;4.25;2.80;;;36.90;72.30;;;;;;5042836;28;20207;-74
2023/07/15 09:14:47;;;;;;;3.13;2.60;;;36.50;72.00;;;;;;5040398;28;20211;-75
2023/07/15 09:17:24;;;;;;;4.15;2.80;;;36.40;73.00;;;;;;5041098;28;20203;-76
2023/07/15 09:19:49;;;;;;;4.05;2.85;;;37.20;72.90;;;;;;5044430;28;20182;-74
2023/07/15 09:22:18;;;;;;;4.13;2.88;;;36.70;73.30;;;;;;5048230;28;20219;-74
2023/07/15 09:24:44;;;;;;;5.30;3.13;;;36.70;72.90;;;;;;5044722;28;20199;-74
2023/07/15 09:27:10;;;;;;;4.75;2.80;;;36.60;72.40;;;;;;5043754;28;20267;-76
2023/07/15 09:29:35;;;;;;;4.07;2.88;;;35.60;73.70;;;;;;5039358;28;20548;-73
2023/07/15 09:32:01;;;;;;;3.97;3.20;;;35.10;75.30;;;;;;5054344;28;20242;-74
2023/07/15 09:34:27;;;;;;;4.53;2.65;;;36.00;75.40;;;;;;5040768;28;20238;-72
2023/07/15 09:36:53;;;;;;;3.67;2.85;;;35.50;74.90;;;;;;5042173;28;20274;-73
2023/07/15 09:39:22;;;;;;;3.53;3.05;;;35.60;75.40;;;;;;5043569;28;20290;-74
2023/07/15 09:42:02;;;;;;;4.07;2.70;;;36.00;75.30;;;;;;5044320;28;20204;-75
2023/07/15 09:44:43;;;;;;;3.42;2.80;;;35.70;75.70;;;;;;5047240;28;20191;-75
2023/07/15 09:47:09;;;;;;;7.50;3.03;;;35.70;76.10;;;;;;5047443;28;20250;-73
2023/07/15 09:49:35;;;;;;;3.42;2.67;;;35.70;76.50;;;;;;5043927;28;20225;-73
2023/07/15 09:52:03;;;;;;;3.80;2.60;;;35.30;76.00;;;;;;5048890;28;20713;-75
2023/07/15 09:54:33;;;;;;;4.53;3.97;;;35.10;76.80;;;;;;5045994;28;20207;-75
2023/07/15 09:57:11;;;;;;;3.53;2.70;;;35.30;77.00;;;;;;5045936;28;20216;-75
2023/07/15 09:59:48;;;;;;;7.90;3.35;;;34.80;77.30;;;;;;5047212;28;20203;-73
2023/07/15 10:02:33;;;;;;;7.78;3.20;;;35.10;77.40;;;;;;5044911;28;20223;-74
2023/07/15 10:05:13;;;;;;;3.65;2.97;;;34.60;78.10;;;;;;5062197;28;20160;-73
2023/07/15 10:07:42;;;;;;;3.45;2.90;;;34.60;78.30;;;;;;5047630;28;20329;-72
2023/07/15 10:10:08;;;;;;;3.33;2.78;;;35.10;77.70;;;;;;5046048;28;20218;-73
2023/07/15 10:12:36;;;;;;;4.75;3.15;;;34.80;78.10;;;;;;5041485;28;20306;-73
2023/07/15 10:15:03;;;;;;;3.13;2.80;;;34.20;78.50;;;;;;5046464;28;20202;-73
2023/07/15 10:17:38;;;;;;;3.30;3.00;;;33.90;79.10;;;;;;5049160;28;20238;-73
2023/07/15 10:20:17;;;;;;;4.60;2.58;;;34.20;79.70;;;;;;5043761;28;20222;-72
2023/07/15 10:22:43;;;;;;;3.78;2.90;;;34.40;78.50;;;;;;5048965;28;20201;-73
2023/07/15 10:25:12;;;;;;;4.53;3.10;;;34.50;78.40;;;;;;5045766;28;20721;-73
2023/07/15 10:27:38;;;;;;;3.60;3.28;;;34.20;79.60;;;;;;5049804;28;20682;-73
2023/07/15 10:30:26;;;;;;;3.95;3.00;;;34.20;79.50;;;;;;5046411;28;20195;-72
2023/07/15 10:33:01;;;;;;;4.60;3.47;;;34.30;79.20;;;;;;5048265;28;20215;-73
2023/07/15 10:35:28;;;;;;;5.55;4.03;;;34.00;79.40;;;;;;5046171;28;20203;-73
2023/07/15 10:37:56;;;;;;;7.68;5.43;;;34.20;79.00;;;;;;5046734;28;20222;-74
2023/07/15 10:40:46;;;;;;;3.70;2.78;;;34.50;79.50;;;;;;5044498;28;20207;-74
2023/07/15 10:43:12;;;;;;;4.47;3.00;;;34.40;76.70;;;;;;5060081;28;20200;-74
2023/07/15 10:45:49;;;;;;;4.00;3.20;;;34.00;77.50;;;;;;5048861;28;20207;-74
2023/07/15 10:48:14;;;;;;;4.45;2.95;;;34.00;78.50;;;;;;5046959;28;20203;-74
2023/07/15 10:50:40;;;;;;;5.60;3.10;;;34.60;78.90;;;;;;5048527;28;21074;-73
2023/07/15 10:53:23;;;;;;;5.55;3.20;;;35.00;78.30;;;;;;5045520;28;20180;-74
2023/07/15 10:56:05;;;;;;;3.20;2.90;;;34.80;77.70;;;;;;5045793;28;20251;-75
2023/07/15 10:58:33;;;;;;;6.05;3.58;;;34.90;78.40;;;;;;5045630;28;20246;-73
2023/07/15 11:01:04;;;;;;;4.10;3.13;;;34.60;76.40;;;;;;5048568;28;20207;-74
2023/07/15 11:03:32;;;;;;;4.45;2.85;;;34.20;76.50;;;;;;5042153;28;20212;-74
2023/07/15 11:06:01;;;;;;;4.40;2.78;;;34.30;76.90;;;;;;5046490;28;20601;-73
2023/07/15 11:08:27;;;;;;;2.88;2.30;;;34.30;75.60;;;;;;5041541;28;20210;-73
2023/07/15 11:11:01;;;;;;;3.65;2.55;;;34.50;76.20;;;;;;5047085;28;20329;-74
2023/07/15 11:13:27;;;;;;;5.10;2.70;;;34.50;74.70;;;;;;5044292;28;20211;-74
2023/07/15 11:15:54;;;;;;;3.15;2.55;;;34.40;75.60;;;;;;5043067;28;20204;-73
2023/07/15 11:18:22;;;;;;;2.83;2.55;;;34.40;75.90;;;;;;5046427;28;20247;-74
2023/07/15 11:20:49;;;;;;;4.75;2.50;;;34.40;76.30;;;;;;5042584;28;20551;-73
2023/07/15 11:23:16;;;;;;;3.15;2.25;;;34.40;75.70;;;;;;5045104;28;20191;-72
2023/07/15 11:25:41;;;;;;;4.70;2.78;;;34.20;75.50;;;;;;5045681;28;20184;-73
2023/07/15 11:28:08;;;;;;;2.42;2.20;;;34.40;73.50;;;;;;5047151;28;20203;-73
2023/07/15 11:30:42;;;;;;;4.80;2.47;;;34.60;71.90;;;;;;5048153;28;20599;-74
2023/07/15 11:33:08;;;;;;;3.17;2.30;;;34.80;72.60;;;;;;5045803;28;20224;-75
2023/07/15 11:35:35;;;;;;;3.63;2.63;;;34.90;72.00;;;;;;5047139;28;20324;-75
2023/07/15 11:38:14;;;;;;;4.25;2.38;;;34.60;70.10;;;;;;5061563;28;20210;-75
2023/07/15 11:40:56;;;;;;;2.63;2.28;;;34.70;70.80;;;;;;5045702;28;20199;-75
2023/07/15 11:43:23;;;;;;;3.28;2.30;;;34.40;69.70;;;;;;5045633;28;20207;-73
2023/07/15 11:45:53;;;;;;;2.78;2.40;;;34.30;70.70;;;;;;5040272;28;20287;-74
2023/07/15 11:48:23;;;;;;;4.85;2.38;;;34.60;71.20;;;;;;5059755;28;20214;-73
2023/07/15 11:50:49;;;;;;;2.53;2.03;;;34.60;69.80;;;;;;5046307;28;20790;-74
2023/07/15 11:53:30;;;;;;;2.75;2.15;;;34.40;70.40;;;;;;5044780;28;20242;-74
2023/07/15 11:55:57;;;;;;;4.32;2.60;;;34.60;70.90;;;;;;5046590;28;20569;-73
2023/07/15 11:58:39;;;;;;;4.10;2.47;;;34.70;71.10;;;;;;5042517;28;20277;-74
2023/07/15 12:01:17;;;;;;;2.88;2.10;;;34.70;71.50;;;;;;5043454;28;21416;-74
2023/07/15 12:03:48;;;;;;;2.45;2.25;;;34.80;71.60;;;;;;5044502;28;20559;-75
2023/07/15 12:06:32;;;;;;;2.20;2.00;;;34.80;71.70;;;;;;5042964;28;20287;-75
2023/07/15 12:09:10;;;;;;;3.25;2.33;;;34.60;69.50;;;;;;5043627;28;20200;-74
2023/07/15 12:11:37;;;;;;;5.53;2.72;;;34.60;70.80;;;;;;5039286;28;20208;-74
2023/07/15 12:14:04;;;;;;;2.85;2.33;;;34.50;69.80;;;;;;5044432;28;20168;-73
2023/07/15 12:16:32;;;;;;;6.03;2.50;;;34.60;70.60;;;;;;5044309;28;20718;-75
2023/07/15 12:18:59;;;;;;;2.58;1.95;;;34.60;70.00;;;;;;5042915;28;20324;-74
2023/07/15 12:21:25;;;;;;;2.75;2.05;;;34.50;70.20;;;;;;5044254;28;20696;-74
2023/07/15 12:23:51;;;;;;;3.63;1.85;;;34.50;70.10;;;;;;5042550;28;20206;-73
2023/07/15 12:26:19;;;;;;;5.50;2.13;;;34.00;70.10;;;;;;5048842;28;20593;-74
2023/07/15 12:28:45;;;;;;;3.13;2.30;;;34.00;71.10;;;;;;5043653;28;20177;-75
2023/07/15 12:31:12;;;;;;;3.35;1.90;;;34.10;70.70;;;;;;5046382;28;20203;-74
2023/07/15 12:33:38;;;;;;;4.40;2.10;;;34.00;71.10;;;;;;5038781;28;20708;-74
2023/07/15 12:36:04;;;;;;;4.22;2.47;;;34.20;71.20;;;;;;5040088;28;20231;-74
2023/07/15 12:38:29;;;;;;;3.22;2.50;;;34.00;70.90;;;;;;5041007;28;20328;-72
2023/07/15 12:40:56;;;;;;;2.50;2.28;;;34.10;71.30;;;;;;5044082;28;20287;-73
2023/07/15 12:43:23;;;;;;;4.47;2.25;;;34.20;71.20;;;;;;5045218;28;20208;-74
2023/07/15 12:45:50;;;;;;;2.58;2.00;;;34.00;70.60;;;;;;5037940;28;20671;-73
2023/07/15 12:48:15;;;;;;;4.63;2.40;;;33.90;71.30;;;;;;5046716;28;20220;-74
2023/07/15 12:50:41;;;;;;;2.80;2.20;;;33.90;71.20;;;;;;5043321;28;20226;-74